Time;durP1;ratioP1;P1;durP2;ratioP2;P2;SDS_P1;SDS_P2;PMS_P1;PMS_P2;Temp;Humidity;BMP_temperature;BMP_pressure;BME280_temperature;BME280_humidity;BME280_pressure;Samples;Min_cycle;Max_cycle;Signal;HPM_P1;HPM_P2
2023/11/13 00:02:13;;;;;;;;;;;;;;;6.71;100.00;100208.81;5107715;28;20332;-56
2023/11/13 00:04:40;;;;;;;;;;;;;;;6.72;100.00;100209.66;5107354;28;19993;-57
2023/11/13 00:07:07;;;;;;;;;;;;;;;6.69;100.00;100221.13;5104503;28;20030;-54
2023/11/13 00:09:35;;;;;;;;;;;;;;;6.53;100.00;100210.56;5103342;28;20445;-56
2023/11/13 00:12:03;;;;;;;;;;;;;;;6.53;100.00;100221.03;5106269;28;20014;-57
2023/11/13 00:14:30;;;;;;;;;;;;;;;6.54;100.00;100221.88;5107430;28;20022;-56
2023/11/13 00:16:57;;;;;;;;;;;;;;;6.48;100.00;100230.84;5105549;28;20018;-56
2023/11/13 00:19:24;;;;;;;;;;;;;;;6.47;100.00;100225.69;5106733;28;19970;-55
2023/11/13 00:21:52;;;;;;;;;;;;;;;6.48;100.00;100228.22;5102324;28;19967;-50
2023/11/13 00:24:19;;;;;;;;;;;;;;;6.53;100.00;100223.66;5103012;28;19932;-54
2023/11/13 00:26:47;;;;;;;;;;;;;;;6.53;100.00;100228.88;5103483;28;21177;-58
2023/11/13 00:29:16;;;;;;;;;;;;;;;6.54;100.00;100234.97;5101643;28;19954;-57
2023/11/13 00:31:42;;;;;;;;;;;;;;;6.56;100.00;100239.19;5101432;28;19924;-57
2023/11/13 00:34:10;;;;;;;;;;;;;;;6.58;100.00;100228.66;5102431;28;19931;-55
2023/11/13 00:36:37;;;;;;;;;;;;;;;6.63;100.00;100237.13;5104672;28;19967;-53
2023/11/13 00:39:04;;;;;;;;;;;;;;;6.64;100.00;100235.34;5105102;28;20066;-54
2023/11/13 00:41:33;;;;;;;;;;;;;;;6.66;100.00;100238.72;5105835;27;19989;-56
2023/11/13 00:44:02;;;;;;;;;;;;;;;6.66;99.60;100243.97;5106079;27;20468;-55
2023/11/13 00:46:29;;;;;;;;;;;;;;;6.61;99.27;100252.03;5105487;28;19924;-56
2023/11/13 00:48:57;;;;;;;;;;;;;;;6.63;99.65;100257.22;5107083;27;19931;-56
2023/11/13 00:51:24;;;;;;;;;;;;;;;6.62;99.69;100243.28;5106252;27;19927;-53
2023/11/13 00:53:51;;;;;;;;;;;;;;;6.57;100.00;100246.13;5107301;27;20380;-54
2023/11/13 00:56:18;;;;;;;;;;;;;;;6.57;100.00;100237.41;5105391;28;19924;-51
2023/11/13 00:58:45;;;;;;;;;;;;;;;6.57;100.00;100230.44;5109027;27;19931;-54
2023/11/13 01:01:14;;;;;;;;;;;;;;;6.56;100.00;100225.25;5105755;28;20002;-54
2023/11/13 01:03:42;;;;;;;;;;;;;;;6.54;100.00;100232.34;5103744;27;19931;-57
2023/11/13 01:06:14;;;;;;;;;;;;;;;6.48;100.00;100230.84;5110144;27;19982;-54
2023/11/13 01:08:41;;;;;;;;;;;;;;;6.50;100.00;100230.78;5109227;28;19927;-55
2023/11/13 01:11:08;;;;;;;;;;;;;;;6.54;100.00;100225.34;5106086;28;20365;-56
2023/11/13 01:13:36;;;;;;;;;;;;;;;6.55;100.00;100231.41;5112632;27;19962;-58
2023/11/13 01:16:04;;;;;;;;;;;;;;;6.52;100.00;100221.94;5111718;27;19959;-58
2023/11/13 01:18:31;;;;;;;;;;;;;;;6.53;100.00;100221.03;5108685;28;20332;-56
2023/11/13 01:20:58;;;;;;;;;;;;;;;6.51;99.91;100211.56;5108284;28;20019;-57
2023/11/13 01:23:25;;;;;;;;;;;;;;;6.50;100.00;100202.88;5104531;27;19924;-56
2023/11/13 01:25:53;;;;;;;;;;;;;;;6.54;100.00;100200.97;5107500;27;19924;-58
2023/11/13 01:28:20;;;;;;;;;;;;;;;6.53;100.00;100205.34;5107985;28;19985;-51
2023/11/13 01:30:47;;;;;;;;;;;;;;;6.49;99.73;100214.25;5108849;28;19958;-55
2023/11/13 01:33:14;;;;;;;;;;;;;;;6.51;100.00;100208.94;5107268;27;20018;-55
2023/11/13 01:35:41;;;;;;;;;;;;;;;6.50;100.00;100210.72;5108682;28;20022;-52
2023/11/13 01:38:08;;;;;;;;;;;;;;;6.52;100.00;100208.88;5108576;27;19935;-55
2023/11/13 01:40:38;;;;;;;;;;;;;;;6.51;100.00;100211.56;5107269;28;20768;-54
2023/11/13 01:43:05;;;;;;;;;;;;;;;6.45;100.00;100217.94;5107895;27;20318;-50
2023/11/13 01:45:33;;;;;;;;;;;;;;;6.49;100.00;100224.72;5105205;28;20026;-53
2023/11/13 01:48:00;;;;;;;;;;;;;;;6.49;100.00;100226.50;5090020;28;20015;-51
2023/11/13 01:50:27;;;;;;;;;;;;;;;6.48;100.00;100212.53;5104497;27;19996;-54
2023/11/13 01:52:54;;;;;;;;;;;;;;;6.48;100.00;100202.09;5090350;28;20026;-51
2023/11/13 01:55:21;;;;;;;;;;;;;;;6.36;100.00;100202.69;5092971;28;19966;-53
2023/11/13 01:57:48;;;;;;;;;;;;;;;6.39;100.00;100212.16;5104766;27;19928;-54
2023/11/13 02:00:15;;;;;;;;;;;;;;;6.42;100.00;100215.47;5105441;27;20038;-55
2023/11/13 02:02:42;;;;;;;;;;;;;;;6.40;100.00;100200.78;5106283;28;20015;-53
2023/11/13 02:05:10;;;;;;;;;;;;;;;6.34;100.00;100199.28;5105386;27;19959;-57
2023/11/13 02:07:37;;;;;;;;;;;;;;;6.37;100.00;100200.94;5104238;27;20003;-54
2023/11/13 02:10:04;;;;;;;;;;;;;;;6.35;100.00;100201.00;5106789;28;19927;-50
2023/11/13 02:12:32;;;;;;;;;;;;;;;6.26;100.00;100207.53;5106690;27;19971;-56
2023/11/13 02:14:59;;;;;;;;;;;;;;;6.29;100.00;100209.13;5100761;27;20010;-49
2023/11/13 02:17:26;;;;;;;;;;;;;;;6.22;100.00;100203.38;5105067;28;19986;-55
2023/11/13 02:19:53;;;;;;;;;;;;;;;6.26;100.00;100190.97;5104915;28;19928;-54
2023/11/13 02:22:20;;;;;;;;;;;;;;;6.28;100.00;100194.38;5107187;27;20393;-55
2023/11/13 02:24:47;;;;;;;;;;;;;;;6.30;100.00;100197.75;5105817;28;20480;-54
2023/11/13 02:27:14;;;;;;;;;;;;;;;6.31;100.00;100202.91;5102879;28;19924;-51
2023/11/13 02:29:41;;;;;;;;;;;;;;;6.30;100.00;100192.53;5090348;28;19944;-57
2023/11/13 02:32:08;;;;;;;;;;;;;;;6.23;100.00;100194.59;5107774;28;19959;-55
2023/11/13 02:34:35;;;;;;;;;;;;;;;6.20;100.00;100207.81;5102642;28;20590;-51
2023/11/13 02:37:02;;;;;;;;;;;;;;;6.18;100.00;100216.66;5104624;27;19927;-54
2023/11/13 02:39:29;;;;;;;;;;;;;;;6.17;100.00;100207.97;5103193;28;19970;-52
2023/11/13 02:41:56;;;;;;;;;;;;;;;6.21;100.00;100212.09;5100105;28;20320;-49
2023/11/13 02:44:23;;;;;;;;;;;;;;;6.24;100.00;100216.34;5105847;27;20331;-53
2023/11/13 02:46:50;;;;;;;;;;;;;;;6.26;100.00;100217.09;5106154;28;20003;-54
2023/11/13 02:49:17;;;;;;;;;;;;;;;6.27;100.00;100224.06;5105339;28;19963;-51
2023/11/13 02:51:44;;;;;;;;;;;;;;;6.22;100.00;100226.88;5107115;27;20421;-51
2023/11/13 02:54:11;;;;;;;;;;;;;;;6.25;100.00;100218.88;5108830;27;20026;-52
2023/11/13 02:56:38;;;;;;;;;;;;;;;6.24;100.00;100216.34;5102227;28;19928;-51
2023/11/13 02:59:06;;;;;;;;;;;;;;;6.18;100.00;100219.25;5102502;28;20383;-51
2023/11/13 03:01:33;;;;;;;;;;;;;;;6.22;100.00;100220.81;5100471;27;20023;-54
2023/11/13 03:04:01;;;;;;;;;;;;;;;6.22;100.00;100210.38;5105543;28;19951;-54
2023/11/13 03:06:28;;;;;;;;;;;;;;;6.21;100.00;100209.50;5106983;28;20006;-54
2023/11/13 03:08:55;;;;;;;;;;;;;;;6.19;100.00;100205.28;5107656;27;20046;-56
2023/11/13 03:11:22;;;;;;;;;;;;;;;6.18;100.00;100204.44;5089721;28;19978;-54
2023/11/13 03:13:49;;;;;;;;;;;;;;;6.19;100.00;100210.50;5102528;28;20461;-51
2023/11/13 03:16:16;;;;;;;;;;;;;;;6.17;100.00;100213.19;5105489;27;20370;-50
2023/11/13 03:18:43;;;;;;;;;;;;;;;6.18;100.00;100208.81;5105262;28;20006;-50
2023/11/13 03:21:11;;;;;;;;;;;;;;;6.20;100.00;100209.56;5109649;28;20059;-55
2023/11/13 03:23:38;;;;;;;;;;;;;;;6.18;100.00;100208.81;5095641;28;20202;-55
2023/11/13 03:26:05;;;;;;;;;;;;;;;6.16;100.00;100202.78;5109308;28;19923;-57
2023/11/13 03:28:32;;;;;;;;;;;;;;;6.15;100.00;100208.94;5103722;28;20574;-51
2023/11/13 03:30:59;;;;;;;;;;;;;;;6.12;100.00;100217.75;5106364;27;19998;-52
2023/11/13 03:33:26;;;;;;;;;;;;;;;6.12;100.00;100212.53;5098666;28;19928;-52
2023/11/13 03:35:54;;;;;;;;;;;;;;;6.08;100.00;100222.31;5108346;28;20007;-52
2023/11/13 03:38:21;;;;;;;;;;;;;;;6.07;100.00;100215.38;5100084;27;20355;-53
2023/11/13 03:40:48;;;;;;;;;;;;;;;6.09;100.00;100224.00;5103981;28;19992;-54
2023/11/13 03:43:15;;;;;;;;;;;;;;;6.11;100.00;100223.91;5099505;28;20325;-53
2023/11/13 03:45:42;;;;;;;;;;;;;;;6.11;100.00;100223.06;5106809;27;20054;-56
2023/11/13 03:48:09;;;;;;;;;;;;;;;6.05;100.00;100225.06;5104053;28;20062;-57
2023/11/13 03:50:37;;;;;;;;;;;;;;;6.03;100.00;100215.59;5097443;28;20018;-54
2023/11/13 03:53:04;;;;;;;;;;;;;;;6.00;100.00;100218.34;5106439;28;19967;-52
2023/11/13 03:55:31;;;;;;;;;;;;;;;5.88;100.00;100217.13;5103183;28;20011;-53
2023/11/13 03:57:58;;;;;;;;;;;;;;;5.87;100.00;100209.38;5102181;28;20386;-56
2023/11/13 04:00:25;;;;;;;;;;;;;;;5.87;100.00;100209.38;5104832;28;19934;-53
2023/11/13 04:02:52;;;;;;;;;;;;;;;5.86;100.00;100213.75;5101491;28;19930;-56
2023/11/13 04:05:19;;;;;;;;;;;;;;;5.87;100.00;100209.38;5100510;28;20049;-55
2023/11/13 04:07:46;;;;;;;;;;;;;;;5.89;100.00;100216.19;5102444;28;20015;-54
2023/11/13 04:10:14;;;;;;;;;;;;;;;5.89;100.00;100215.34;5103123;28;20086;-54
2023/11/13 04:12:42;;;;;;;;;;;;;;;5.90;100.00;100210.06;5099481;28;19932;-58
2023/11/13 04:15:09;;;;;;;;;;;;;;;5.89;100.00;100216.19;5105824;28;19928;-57
2023/11/13 04:17:36;;;;;;;;;;;;;;;5.84;100.00;100224.25;5106082;28;20007;-53
2023/11/13 04:20:07;;;;;;;;;;;;;;;5.88;100.00;100222.34;5103561;28;19963;-54
2023/11/13 04:22:34;;;;;;;;;;;;;;;5.88;100.00;100219.72;5096239;28;19924;-51
2023/11/13 04:25:01;;;;;;;;;;;;;;;5.87;100.00;100223.25;5104982;28;20018;-52
2023/11/13 04:27:29;;;;;;;;;;;;;;;5.88;100.00;100213.66;5108618;28;20196;-53
2023/11/13 04:29:56;;;;;;;;;;;;;;;5.83;100.00;100222.56;5106851;27;20383;-53
2023/11/13 04:32:24;;;;;;;;;;;;;;;5.77;100.00;100214.16;5100630;28;20086;-53
2023/11/13 04:34:51;;;;;;;;;;;;;;;5.80;100.00;100214.00;5105815;28;19928;-50
2023/11/13 04:37:18;;;;;;;;;;;;;;;5.79;100.00;100220.16;5108418;28;20318;-54
2023/11/13 04:39:46;;;;;;;;;;;;;;;5.79;100.00;100215.78;5099695;27;19958;-52
2023/11/13 04:42:13;;;;;;;;;;;;;;;5.76;100.00;100222.88;5102719;28;20464;-54
2023/11/13 04:44:39;;;;;;;;;;;;;;;5.72;100.00;100226.56;5107002;28;19928;-50
2023/11/13 04:47:08;;;;;;;;;;;;;;;5.72;100.00;100224.81;5105074;27;20498;-54
2023/11/13 04:49:35;;;;;;;;;;;;;;;5.74;100.00;100224.75;5109339;28;20384;-52
2023/11/13 04:52:02;;;;;;;;;;;;;;;5.73;100.00;100238.72;5103059;28;20015;-54
2023/11/13 04:54:29;;;;;;;;;;;;;;;5.72;100.00;100240.50;5103075;27;19972;-52
2023/11/13 04:56:57;;;;;;;;;;;;;;;5.69;100.00;100235.41;5099959;28;20419;-52
2023/11/13 04:59:25;;;;;;;;;;;;;;;5.66;100.00;100234.69;5109144;28;19970;-54
2023/11/13 05:01:53;;;;;;;;;;;;;;;5.65;100.00;100231.22;5112579;27;19949;-55
2023/11/13 05:04:20;;;;;;;;;;;;;;;5.63;100.00;100232.19;5106134;28;19923;-55
2023/11/13 05:06:47;;;;;;;;;;;;;;;5.61;100.00;100234.88;5103385;27;19930;-56
2023/11/13 05:09:14;;;;;;;;;;;;;;;5.58;100.00;100229.78;5106164;27;20043;-56
2023/11/13 05:11:42;;;;;;;;;;;;;;;5.55;100.00;100235.16;5109580;27;20249;-56
2023/11/13 05:14:09;;;;;;;;;;;;;;;5.51;100.00;100242.28;5100528;27;20469;-56
2023/11/13 05:16:35;;;;;;;;;;;;;;;5.54;100.00;100244.78;5107567;27;19979;-54
2023/11/13 05:19:03;;;;;;;;;;;;;;;5.49;100.00;100241.53;5108763;27;20069;-58
2023/11/13 05:21:30;;;;;;;;;;;;;;;5.50;100.00;100247.59;5113075;28;19962;-57
2023/11/13 05:23:57;;;;;;;;;;;;;;;5.47;100.00;100243.34;5107874;27;20018;-53
2023/11/13 05:26:25;;;;;;;;;;;;;;;5.42;100.00;100245.31;5104857;28;20014;-54
2023/11/13 05:28:54;;;;;;;;;;;;;;;5.41;100.00;100240.16;5107068;28;20401;-57
2023/11/13 05:31:21;;;;;;;;;;;;;;;5.44;100.00;100248.69;5111034;27;19936;-54
2023/11/13 05:33:49;;;;;;;;;;;;;;;5.39;100.00;100245.44;5102433;27;19986;-56
2023/11/13 05:36:16;;;;;;;;;;;;;;;5.38;100.00;100240.28;5099561;28;19992;-58
2023/11/13 05:38:43;;;;;;;;;;;;;;;5.40;100.00;100236.66;5103237;27;20051;-56
2023/11/13 05:41:10;;;;;;;;;;;;;;;5.41;100.00;100234.94;5101994;27;20769;-56
2023/11/13 05:43:37;;;;;;;;;;;;;;;5.40;100.00;100234.06;5103003;27;20315;-55
2023/11/13 05:46:05;;;;;;;;;;;;;;;5.36;100.00;100234.25;5104335;27;20020;-54
2023/11/13 05:48:33;;;;;;;;;;;;;;;5.35;100.00;100238.63;5111234;28;19977;-56
2023/11/13 05:51:00;;;;;;;;;;;;;;;5.37;100.00;100241.19;5109393;28;19975;-53
2023/11/13 05:53:27;;;;;;;;;;;;;;;5.37;100.00;100241.19;5104139;27;20426;-55
2023/11/13 05:55:54;;;;;;;;;;;;;;;5.36;100.00;100231.66;5103403;27;19967;-55
2023/11/13 05:58:23;;;;;;;;;;;;;;;5.36;100.00;100222.09;5103185;28;20102;-55
2023/11/13 06:00:51;;;;;;;;;;;;;;;5.34;100.00;100231.72;5107495;27;20371;-56
2023/11/13 06:03:18;;;;;;;;;;;;;;;5.33;100.00;100235.25;5105002;27;21040;-54
2023/11/13 06:05:45;;;;;;;;;;;;;;;5.31;100.00;100231.84;5095274;28;19982;-55
2023/11/13 06:08:12;;;;;;;;;;;;;;;5.30;100.00;100235.38;5095813;28;19983;-56
2023/11/13 06:10:39;;;;;;;;;;;;;;;5.30;100.00;100240.59;5111524;27;19956;-58
2023/11/13 06:13:07;;;;;;;;;;;;;;;5.29;100.00;100239.75;5107067;27;19966;-53
2023/11/13 06:15:40;;;;;;;;;;;;;;;5.28;100.00;100251.13;5112043;27;20086;-58
2023/11/13 06:18:07;;;;;;;;;;;;;;;5.28;100.00;100245.06;5109923;27;20018;-57
2023/11/13 06:20:34;;;;;;;;;;;;;;;5.29;100.00;100258.03;5105102;28;19963;-58
2023/11/13 06:23:02;;;;;;;;;;;;;;;5.31;100.00;100265.78;5112958;28;20018;-55
2023/11/13 06:25:29;;;;;;;;;;;;;;;5.36;100.00;100270.81;5115175;27;19969;-58
2023/11/13 06:27:56;;;;;;;;;;;;;;;5.38;100.00;100262.00;5107736;28;20046;-56
2023/11/13 06:30:24;;;;;;;;;;;;;;;5.42;100.00;100255.75;5110165;28;19971;-56
2023/11/13 06:32:50;;;;;;;;;;;;;;;5.36;100.00;100263.84;5110236;27;20323;-56
2023/11/13 06:35:18;;;;;;;;;;;;;;;5.41;100.00;100255.81;5108909;28;20105;-57
2023/11/13 06:37:45;;;;;;;;;;;;;;;5.44;100.00;100261.72;5110460;28;20303;-56
2023/11/13 06:40:16;;;;;;;;;;;;;;;5.49;100.00;100249.34;5109735;28;20561;-56
2023/11/13 06:42:46;;;;;;;;;;;;;;;5.51;100.00;100252.72;5107916;28;19924;-54
2023/11/13 06:45:13;;;;;;;;;;;;;;;5.51;100.00;100244.91;5102609;28;20011;-56
2023/11/13 06:47:41;;;;;;;;;;;;;;;5.53;100.00;100243.06;5111148;27;20387;-57
2023/11/13 06:50:10;;;;;;;;;;;;;;;5.52;100.00;100241.34;5100703;28;19924;-59
2023/11/13 06:52:37;;;;;;;;;;;;;;;5.53;100.00;100245.66;5104146;28;19959;-56
2023/11/13 06:55:04;;;;;;;;;;;;;;;5.54;100.00;100251.75;5102044;28;19967;-56
2023/11/13 06:57:31;;;;;;;;;;;;;;;5.53;100.00;100250.03;5098503;28;19956;-54
2023/11/13 06:59:58;;;;;;;;;;;;;;;5.52;100.00;100246.59;5108311;28;20024;-56
2023/11/13 07:02:27;;;;;;;;;;;;;;;5.48;100.00;100249.41;5114936;27;19923;-57
2023/11/13 07:04:55;;;;;;;;;;;;;;;5.47;100.00;100247.72;5104310;28;20130;-51
2023/11/13 07:07:22;;;;;;;;;;;;;;;5.47;100.00;100250.31;5105335;28;20031;-53
2023/11/13 07:09:49;;;;;;;;;;;;;;;5.45;100.00;100242.56;5102562;27;19950;-55
2023/11/13 07:12:16;;;;;;;;;;;;;;;5.46;100.00;100246.88;5105807;28;19959;-51
2023/11/13 07:14:43;;;;;;;;;;;;;;;5.50;100.00;100237.16;5100727;28;19982;-54
2023/11/13 07:17:10;;;;;;;;;;;;;;;5.54;100.00;100238.69;5104799;27;20169;-54
2023/11/13 07:19:39;;;;;;;;;;;;;;;5.61;100.00;100239.25;5101098;28;19956;-53
2023/11/13 07:22:06;;;;;;;;;;;;;;;5.70;100.00;100238.84;5103153;28;19971;-53
2023/11/13 07:24:36;;;;;;;;;;;;;;;5.77;100.00;100245.50;5099146;27;19930;-56
2023/11/13 07:27:03;;;;;;;;;;;;;;;5.80;100.00;100240.97;5109167;28;20230;-57
2023/11/13 07:29:35;;;;;;;;;;;;;;;5.85;100.00;100238.16;5108315;28;20006;-57
2023/11/13 07:32:02;;;;;;;;;;;;;;;5.88;100.00;100231.94;5107814;27;19970;-52
2023/11/13 07:34:29;;;;;;;;;;;;;;;5.87;100.00;100241.56;5108444;28;20018;-51
2023/11/13 07:36:56;;;;;;;;;;;;;;;5.88;99.37;100232.78;5100750;28;20060;-49
2023/11/13 07:39:27;;;;;;;;;;;;;;;5.88;99.51;100232.78;5102932;27;20544;-54
2023/11/13 07:41:56;;;;;;;;;;;;;;;5.84;98.81;100229.47;5101356;28;20007;-55
2023/11/13 07:44:23;;;;;;;;;;;;;;;5.82;99.01;100230.47;5104195;27;20325;-56
2023/11/13 07:46:51;;;;;;;;;;;;;;;5.80;99.23;100235.75;5103750;28;20011;-55
2023/11/13 07:49:18;;;;;;;;;;;;;;;5.76;98.47;100238.56;5105460;28;19923;-57
2023/11/13 07:51:45;;;;;;;;;;;;;;;5.78;98.66;100234.13;5101097;28;20027;-53
2023/11/13 07:54:12;;;;;;;;;;;;;;;5.85;98.04;100238.16;5098920;28;20046;-57
2023/11/13 07:56:39;;;;;;;;;;;;;;;5.86;97.35;100239.88;5104499;28;20348;-53
2023/11/13 07:59:08;;;;;;;;;;;;;;;5.89;96.74;100241.47;5103287;28;20014;-52
2023/11/13 08:01:36;;;;;;;;;;;;;;;5.99;97.12;100245.38;5100680;28;20037;-53
2023/11/13 08:04:07;;;;;;;;;;;;;;;6.02;96.60;100232.19;5102508;28;20032;-53
2023/11/13 08:06:34;;;;;;;;;;;;;;;6.01;96.37;100235.72;5102736;28;20007;-57
2023/11/13 08:09:07;;;;;;;;;;;;;;;5.98;96.41;100234.09;5106074;28;19962;-55
2023/11/13 08:11:35;;;;;;;;;;;;;;;5.86;95.91;100228.56;5102013;28;20074;-51
2023/11/13 08:14:03;;;;;;;;;;;;;;;5.85;96.27;100219.84;5102841;28;20024;-55
2023/11/13 08:16:33;;;;;;;;;;;;;;;5.89;96.13;100221.41;5104269;28;20495;-53
2023/11/13 08:19:00;;;;;;;;;;;;;;;5.97;95.83;100216.72;5104355;28;19932;-55
2023/11/13 08:21:30;;;;;;;;;;;;;;;6.16;94.77;100214.09;5101701;28;19971;-54
2023/11/13 08:23:57;;;;;;;;;;;;;;;6.47;94.84;100226.53;5103258;28;20014;-55
2023/11/13 08:26:29;;;;;;;;;;;;;;;6.59;92.33;100219.88;5104555;28;20014;-56
2023/11/13 08:28:59;;;;;;;;;;;;;;;6.77;91.25;100225.97;5102987;28;20351;-56
2023/11/13 08:31:27;;;;;;;;;;;;;;;6.89;90.34;100225.38;5103905;28;20432;-52
2023/11/13 08:33:55;;;;;;;;;;;;;;;7.09;89.07;100225.22;5099310;28;20010;-51
2023/11/13 08:36:22;;;;;;;;;;;;;;;7.25;88.87;100232.25;5103313;28;20030;-56
2023/11/13 08:38:49;;;;;;;;;;;;;;;7.33;87.76;100230.94;5102626;28;19924;-56
2023/11/13 08:41:18;;;;;;;;;;;;;;;7.57;87.11;100233.22;5103910;28;19932;-54
2023/11/13 08:43:45;;;;;;;;;;;;;;;7.79;86.42;100236.41;5098357;28;19936;-56
2023/11/13 08:46:12;;;;;;;;;;;;;;;7.67;85.48;100231.81;5101046;28;20007;-54
2023/11/13 08:48:39;;;;;;;;;;;;;;;7.59;84.83;100234.81;5103691;28;19963;-56
2023/11/13 08:51:08;;;;;;;;;;;;;;;7.30;85.01;100232.91;5100085;28;20298;-53
2023/11/13 08:53:42;;;;;;;;;;;;;;;7.31;86.54;100229.34;5087897;28;19932;-55
2023/11/13 08:56:14;;;;;;;;;;;;;;;7.47;86.43;100218.91;5104198;28;20346;-57
2023/11/13 08:58:42;;;;;;;;;;;;;;;7.70;85.70;100218.56;5105622;28;19924;-55
2023/11/13 09:01:09;;;;;;;;;;;;;;;7.48;84.39;100216.22;5106871;28;20385;-58
2023/11/13 09:03:37;;;;;;;;;;;;;;;7.68;83.57;100216.94;5107549;27;20011;-55
2023/11/13 09:06:08;;;;;;;;;;;;;;;8.10;84.21;100216.38;5107831;27;19924;-57
2023/11/13 09:08:35;;;;;;;;;;;;;;;8.34;82.16;100207.16;5109455;27;20047;-52
2023/11/13 09:11:04;;;;;;;;;;;;;;;8.87;83.09;100210.25;5108237;27;20047;-57
2023/11/13 09:13:31;;;;;;;;;;;;;;;9.40;79.85;100214.13;5107482;27;20542;-56
2023/11/13 09:15:59;;;;;;;;;;;;;;;9.60;78.23;100211.13;5108210;27;19938;-58
2023/11/13 09:18:26;;;;;;;;;;;;;;;9.92;78.37;100205.66;5108885;27;20402;-57
2023/11/13 09:20:58;;;;;;;;;;;;;;;10.10;77.02;100208.91;5105139;27;20266;-58
2023/11/13 09:23:26;;;;;;;;;;;;;;;10.37;75.77;100206.34;5104573;28;19936;-58
2023/11/13 09:25:53;;;;;;;;;;;;;;;10.52;73.73;100202.69;5101779;27;19938;-54
2023/11/13 09:28:21;;;;;;;;;;;;;;;10.63;72.90;100202.00;5105356;27;19930;-53
2023/11/13 09:30:48;;;;;;;;;;;;;;;10.69;72.78;100208.66;5107465;28;20354;-57
2023/11/13 09:33:17;;;;;;;;;;;;;;;10.11;68.19;100211.44;5106352;27;20457;-56
2023/11/13 09:35:46;;;;;;;;;;;;;;;10.07;67.84;100209.94;5103829;28;20022;-54
2023/11/13 09:38:13;;;;;;;;;;;;;;;9.96;68.44;100194.00;5109145;27;20378;-57
2023/11/13 09:40:40;;;;;;;;;;;;;;;9.64;67.67;100196.88;5109223;27;19931;-56
2023/11/13 09:43:18;;;;;;;;;;;;;;;9.55;68.09;100192.19;5106155;28;19955;-56
2023/11/13 09:45:47;;;;;;;;;;;;;;;9.80;68.93;100185.38;5110114;27;19938;-54
2023/11/13 09:48:29;;;;;;;;;;;;;;;9.97;67.47;100186.97;5109682;27;20002;-56
2023/11/13 09:50:59;;;;;;;;;;;;;;;10.04;67.76;100186.47;5106451;27;20011;-56
2023/11/13 09:53:27;;;;;;;;;;;;;;;10.16;67.41;100184.84;5089532;28;20524;-57
2023/11/13 09:55:54;;;;;;;;;;;;;;;10.26;67.35;100185.94;5106022;27;20576;-57
2023/11/13 09:58:21;;;;;;;;;;;;;;;10.27;67.30;100181.56;5108213;27;19931;-56
2023/11/13 10:00:48;;;;;;;;;;;;;;;10.54;67.05;100179.75;5107534;27;19983;-56
2023/11/13 10:03:15;;;;;;;;;;;;;;;10.63;67.02;100178.31;5083704;28;20437;-57
2023/11/13 10:05:43;;;;;;;;;;;;;;;10.70;66.84;100176.09;5106051;27;19944;-55
2023/11/13 10:08:11;;;;;;;;;;;;;;;10.64;66.15;100178.19;5103434;27;20042;-56
2023/11/13 10:10:42;;;;;;;;;;;;;;;10.55;65.61;100173.53;5102797;28;19959;-57
2023/11/13 10:13:13;;;;;;;;;;;;;;;10.71;66.56;100173.34;5102279;27;20441;-55
2023/11/13 10:15:44;;;;;;;;;;;;;;;10.86;66.39;100168.88;5101592;27;19924;-57
2023/11/13 10:18:12;;;;;;;;;;;;;;;10.96;66.33;100164.66;5102577;27;20367;-55
2023/11/13 10:20:41;;;;;;;;;;;;;;;10.74;65.89;100170.53;5103485;28;20054;-55
2023/11/13 10:23:08;;;;;;;;;;;;;;;10.78;67.09;100166.75;5103212;28;20125;-55
2023/11/13 10:25:52;;;;;;;;;;;;;;;10.92;66.94;100151.81;5105001;28;20393;-53
2023/11/13 10:28:22;;;;;;;;;;;;;;;10.94;66.90;100148.09;5107488;27;19927;-57
2023/11/13 10:30:52;;;;;;;;;;;;;;;11.19;66.53;100146.44;5102441;27;20006;-55
2023/11/13 10:33:21;;;;;;;;;;;;;;;11.35;64.52;100149.72;5101324;27;20031;-57
2023/11/13 10:35:49;;;;;;;;;;;;;;;11.38;64.86;100142.41;5105895;27;19932;-56
2023/11/13 10:38:17;;;;;;;;;;;;;;;11.45;64.55;100150.75;5108337;27;19951;-57
2023/11/13 10:40:53;;;;;;;;;;;;;;;11.19;64.57;100143.81;5111229;27;20007;-55
2023/11/13 10:43:40;;;;;;;;;;;;;;;11.47;63.41;100140.09;5104095;28;19977;-57
2023/11/13 10:46:07;;;;;;;;;;;;;;;11.56;62.10;100124.47;5109943;27;20002;-56
2023/11/13 10:48:38;;;;;;;;;;;;;;;11.69;62.95;100107.78;5109316;27;19984;-50
2023/11/13 10:51:06;;;;;;;;;;;;;;;11.56;61.50;100107.81;5108946;27;19928;-52
2023/11/13 10:53:33;;;;;;;;;;;;;;;11.43;61.19;100105.19;5105051;27;20030;-56
2023/11/13 10:56:00;;;;;;;;;;;;;;;11.09;62.44;100102.28;5102365;27;20043;-54
2023/11/13 10:58:28;;;;;;;;;;;;;;;11.10;63.15;100103.13;5108866;27;19948;-53
2023/11/13 11:00:56;;;;;;;;;;;;;;;10.89;62.38;100100.19;5091833;27;20000;-50
2023/11/13 11:03:24;;;;;;;;;;;;;;;11.30;62.33;100093.81;5106120;27;19923;-55
2023/11/13 11:05:52;;;;;;;;;;;;;;;11.94;60.79;100089.25;5106537;27;20006;-57
2023/11/13 11:08:19;;;;;;;;;;;;;;;12.41;59.73;100090.16;5106106;27;20011;-54
2023/11/13 11:10:46;;;;;;;;;;;;;;;12.65;58.16;100079.53;5104128;27;19923;-55
2023/11/13 11:13:14;;;;;;;;;;;;;;;12.59;57.53;100083.50;5085712;28;20078;-55
2023/11/13 11:15:47;;;;;;;;;;;;;;;12.53;57.79;100073.41;5089553;28;20046;-58
2023/11/13 11:18:17;;;;;;;;;;;;;;;12.49;58.38;100063.19;5104394;27;19924;-57
2023/11/13 11:20:51;;;;;;;;;;;;;;;12.45;58.11;100073.16;5102100;28;20023;-55
2023/11/13 11:23:20;;;;;;;;;;;;;;;13.05;56.63;100060.63;5087982;27;20026;-55
2023/11/13 11:25:47;;;;;;;;;;;;;;;13.56;54.56;100062.78;5106858;27;19984;-58
2023/11/13 11:28:33;;;;;;;;;;;;;;;14.29;53.55;100063.88;5085830;28;19932;-56
2023/11/13 11:31:33;;;;;;;;;;;;;;;14.85;51.62;100068.84;5102167;27;19924;-57
2023/11/13 11:34:01;;;;;;;;;;;;;;;14.50;51.07;100062.09;5105026;27;20188;-58
2023/11/13 11:36:29;;;;;;;;;;;;;;;14.83;49.34;100068.16;5108422;27;20465;-54
2023/11/13 11:39:18;;;;;;;;;;;;;;;15.07;48.25;100068.69;5102816;27;20026;-56
2023/11/13 11:41:51;;;;;;;;;;;;;;;16.54;46.64;100068.81;5102359;28;19928;-56
2023/11/13 11:44:22;;;;;;;;;;;;;;;18.40;42.10;100057.06;5105856;27;19932;-55
2023/11/13 11:46:50;;;;;;;;;;;;;;;20.07;39.01;100053.88;5105971;28;19923;-54
2023/11/13 11:49:26;;;;;;;;;;;;;;;21.35;34.84;100048.72;5105370;27;19955;-57
2023/11/13 11:51:54;;;;;;;;;;;;;;;23.72;35.09;100050.94;5106555;28;20386;-57
2023/11/13 11:54:22;;;;;;;;;;;;;;;24.27;30.41;100043.22;5101892;28;19965;-58
2023/11/13 11:57:00;;;;;;;;;;;;;;;24.69;30.64;100036.16;5100612;28;19974;-55
2023/11/13 11:59:27;;;;;;;;;;;;;;;26.38;28.36;100029.09;5106629;27;20500;-58
2023/11/13 12:01:55;;;;;;;;;;;;;;;28.11;26.59;100031.28;5086004;28;19931;-58
2023/11/13 12:04:22;;;;;;;;;;;;;;;27.62;25.07;100033.63;5105386;28;20014;-56
2023/11/13 12:06:53;;;;;;;;;;;;;;;27.72;24.41;100025.91;5089534;28;19956;-55
2023/11/13 12:09:21;;;;;;;;;;;;;;;27.23;23.54;100023.81;5104986;28;19974;-54
2023/11/13 12:11:48;;;;;;;;;;;;;;;25.34;26.11;100002.53;5103746;28;20409;-53
2023/11/13 12:14:16;;;;;;;;;;;;;;;25.79;25.79;100004.78;5102532;28;19946;-55
2023/11/13 12:16:43;;;;;;;;;;;;;;;26.81;25.49;100003.56;5085373;28;20034;-57
2023/11/13 12:19:13;;;;;;;;;;;;;;;26.84;25.04;99992.31;5099973;28;19995;-55
2023/11/13 12:21:43;;;;;;;;;;;;;;;27.49;23.77;99993.97;5101770;28;20409;-55
2023/11/13 12:24:11;;;;;;;;;;;;;;;25.17;26.82;99983.22;5090913;28;20388;-55
2023/11/13 12:26:40;;;;;;;;;;;;;;;23.41;28.45;99991.25;5105504;28;19923;-53
2023/11/13 12:29:25;;;;;;;;;;;;;;;21.49;30.65;99979.19;5104834;28;20015;-53
2023/11/13 12:31:53;;;;;;;;;;;;;;;23.10;29.50;99975.38;5102204;28;20417;-52
2023/11/13 12:34:20;;;;;;;;;;;;;;;24.58;27.73;99970.22;5086958;28;19967;-56
2023/11/13 12:36:48;;;;;;;;;;;;;;;23.37;28.30;99971.16;5103643;27;19981;-55
2023/11/13 12:39:22;;;;;;;;;;;;;;;21.05;31.55;99965.50;5106897;28;19970;-53
2023/11/13 12:41:52;;;;;;;;;;;;;;;20.22;33.14;99958.69;5106482;28;19931;-54
2023/11/13 12:44:23;;;;;;;;;;;;;;;18.54;35.54;99957.88;5108684;27;19989;-53